Weather at Beja Civil Airfield

Public forecast

Using degrees Celsius for public forecast. Weather courtesy of forecast.io.

Closest aviation weather report (METAR) to Beja Civil Airfield

Closest report is Beja Airport / Airbase, 2.8 nm (5.2 km) WNW. Retrieved 2022/08/12 17:00 UTC (5 minutes ago):

LPBJ 121700Z 30004KT 220V010 CAVOK 34/11 Q1013

Closest aviation forecast (TAF) to Beja Civil Airfield

Closest forecast is Beja Airport / Airbase, 2.8 nm (5.2 km) WNW. Retrieved 2022/08/12 12:18 UTC (5 hours ago):

TAF LPBJ 121106Z 1212/1312 30008KT CAVOK BECMG 1300/1302 VRB02KT SCT025 TEMPO 1302/1312 6000 -SHRA BKN022 PROB30 TEMPO 1303/1310 2500 TSRA SCT022CB